Time;durP1;ratioP1;P1;durP2;ratioP2;P2;SDS_P1;SDS_P2;PMS_P1;PMS_P2;Temp;Humidity;BMP_temperature;BMP_pressure;BME280_temperature;BME280_humidity;BME280_pressure;Samples;Min_cycle;Max_cycle;Signal;HPM_P1;HPM_P2
2022/09/26 00:01:12;;;;;;;;;;;12.30;99.90;;;;;;5119110;27;19972;-73
2022/09/26 00:03:37;;;;;;;;;;;12.30;99.90;;;;;;5135247;27;19918;-73
2022/09/26 00:06:04;;;;;;;;;;;12.30;99.90;;;;;;5127944;27;19912;-79
2022/09/26 00:08:30;;;;;;;;;;;12.30;99.90;;;;;;5102993;27;19915;-78
2022/09/26 00:10:57;;;;;;;;;;;12.30;99.90;;;;;;5107113;27;19972;-78
2022/09/26 00:13:23;;;;;;;;;;;12.30;99.90;;;;;;5120655;27;19919;-76
2022/09/26 00:15:48;;;;;;;;;;;12.30;99.90;;;;;;5124584;27;19912;-76
2022/09/26 00:18:14;;;;;;;;;;;12.30;99.90;;;;;;5119140;27;19964;-78
2022/09/26 00:20:39;;;;;;;;;;;12.30;99.90;;;;;;5119770;27;19920;-77
2022/09/26 00:23:05;;;;;;;;;;;12.30;99.90;;;;;;5111429;27;19919;-77
2022/09/26 00:25:30;;;;;;;;;;;12.30;99.90;;;;;;5129409;27;19961;-77
2022/09/26 00:27:56;;;;;;;;;;;12.30;99.90;;;;;;5123270;27;19919;-78
2022/09/26 00:30:21;;;;;;;;;;;12.30;99.90;;;;;;5124483;27;19923;-76
2022/09/26 00:32:47;;;;;;;;;;;12.30;99.90;;;;;;5116194;27;19912;-77
2022/09/26 00:35:12;;;;;;;;;;;12.30;99.90;;;;;;5100404;28;19912;-73
2022/09/26 00:37:38;;;;;;;;;;;12.40;99.90;;;;;;5120741;27;19980;-77
2022/09/26 00:40:03;;;;;;;;;;;12.40;99.90;;;;;;5097612;28;20313;-78
2022/09/26 00:42:29;;;;;;;;;;;12.40;99.90;;;;;;5128314;27;19994;-78
2022/09/26 00:44:55;;;;;;;;;;;12.40;99.90;;;;;;5120861;27;20284;-79
2022/09/26 00:47:40;;;;;;;;;;;12.40;99.90;;;;;;5102309;28;19922;-76
2022/09/26 00:50:26;;;;;;;;;;;12.40;99.90;;;;;;5125011;27;19935;-76
2022/09/26 00:53:01;;;;;;;;;;;12.40;99.90;;;;;;5122390;27;20306;-78
2022/09/26 00:55:29;;;;;;;;;;;12.40;99.90;;;;;;5113532;28;19915;-77
2022/09/26 00:57:58;;;;;;;;;;;12.40;99.90;;;;;;5116670;28;19957;-78
2022/09/26 01:00:23;;;;;;;;;;;12.30;99.90;;;;;;5116669;28;19911;-78
2022/09/26 01:02:50;;;;;;;;;;;12.30;99.90;;;;;;5112997;28;19915;-75
2022/09/26 01:05:17;;;;;;;;;;;12.30;99.90;;;;;;5117070;27;19920;-78
2022/09/26 01:07:43;;;;;;;;;;;12.30;99.90;;;;;;5118337;27;19911;-78
2022/09/26 01:10:09;;;;;;;;;;;12.30;99.90;;;;;;5136201;27;19912;-74
2022/09/26 01:12:36;;;;;;;;;;;12.30;99.90;;;;;;5137727;27;19966;-74
2022/09/26 01:15:04;;;;;;;;;;;12.30;99.90;;;;;;5134918;27;20225;-74
2022/09/26 01:17:29;;;;;;;;;;;12.30;99.90;;;;;;5107127;28;19968;-74
2022/09/26 01:20:10;;;;;;;;;;;12.30;99.90;;;;;;5124837;27;20306;-74
2022/09/26 01:22:54;;;;;;;;;;;12.30;99.90;;;;;;5138395;27;19922;-78
2022/09/26 01:25:22;;;;;;;;;;;12.30;99.90;;;;;;5131225;27;19959;-74
2022/09/26 01:27:57;;;;;;;;;;;12.30;99.90;;;;;;5135707;27;20030;-74
2022/09/26 01:30:25;;;;;;;;;;;12.30;99.90;;;;;;5126678;27;19950;-78
2022/09/26 01:33:05;;;;;;;;;;;12.30;99.90;;;;;;5117572;27;19939;-74
2022/09/26 01:35:50;;;;;;;;;;;12.20;99.90;;;;;;5123405;27;20373;-75
2022/09/26 01:38:35;;;;;;;;;;;12.20;99.90;;;;;;5105340;27;20313;-75
2022/09/26 01:41:20;;;;;;;;;;;12.20;99.90;;;;;;5119158;27;19927;-73
2022/09/26 01:43:45;;;;;;;;;;;12.20;99.90;;;;;;5141382;27;20002;-73
2022/09/26 01:46:31;;;;;;;;;;;12.20;99.90;;;;;;5136385;27;19983;-73
2022/09/26 01:49:07;;;;;;;;;;;12.20;99.90;;;;;;5115012;27;19915;-73
2022/09/26 01:51:36;;;;;;;;;;;12.20;99.90;;;;;;5124622;27;19946;-73
2022/09/26 01:54:10;;;;;;;;;;;12.20;99.90;;;;;;5133987;27;19919;-73
2022/09/26 01:56:37;;;;;;;;;;;12.20;99.90;;;;;;5106901;28;19916;-74
2022/09/26 01:59:12;;;;;;;;;;;12.10;99.90;;;;;;5115691;27;19920;-74
2022/09/26 02:01:39;;;;;;;;;;;12.10;99.90;;;;;;5125742;27;19912;-74
2022/09/26 02:04:10;;;;;;;;;;;12.10;99.90;;;;;;5102993;27;19922;-74
2022/09/26 02:06:47;;;;;;;;;;;12.00;99.90;;;;;;5126981;27;19915;-74
2022/09/26 02:09:18;;;;;;;;;;;12.00;99.90;;;;;;5117143;27;20263;-74
2022/09/26 02:11:47;;;;;;;;;;;12.00;99.90;;;;;;5129494;27;19998;-74
2022/09/26 02:14:15;;;;;;;;;;;11.90;99.90;;;;;;5137481;27;19918;-73
2022/09/26 02:16:54;;;;;;;;;;;11.90;99.90;;;;;;5127062;27;19911;-74
2022/09/26 02:19:30;;;;;;;;;;;11.90;99.90;;;;;;5123621;27;20313;-74
2022/09/26 02:21:57;;;;;;;;;;;11.90;99.90;;;;;;5134699;27;19915;-74
2022/09/26 02:24:23;;;;;;;;;;;11.90;99.90;;;;;;5113158;28;19995;-74
2022/09/26 02:26:49;;;;;;;;;;;11.90;99.90;;;;;;5132011;27;19997;-73
2022/09/26 02:29:15;;;;;;;;;;;11.90;99.90;;;;;;5128449;27;20038;-75
2022/09/26 02:31:52;;;;;;;;;;;11.90;99.90;;;;;;5111956;27;20011;-74
2022/09/26 02:34:18;;;;;;;;;;;11.90;99.90;;;;;;5127869;27;19918;-77
2022/09/26 02:36:44;;;;;;;;;;;11.90;99.90;;;;;;5147583;27;19911;-74
2022/09/26 02:39:10;;;;;;;;;;;11.90;99.90;;;;;;5132293;27;19915;-74
2022/09/26 02:41:51;;;;;;;;;;;11.80;99.90;;;;;;5114865;27;19917;-76
2022/09/26 02:44:25;;;;;;;;;;;11.80;99.90;;;;;;5132253;27;20251;-76
2022/09/26 02:47:20;;;;;;;;;;;11.80;99.90;;;;;;5121994;27;20279;-75
2022/09/26 02:50:07;;;;;;;;;;;11.80;99.90;;;;;;5089590;27;19919;-76
2022/09/26 02:52:35;;;;;;;;;;;11.80;99.90;;;;;;5108426;28;20231;-73
2022/09/26 02:55:21;;;;;;;;;;;11.80;99.90;;;;;;5095966;28;19966;-75
2022/09/26 02:58:05;;;;;;;;;;;11.80;99.90;;;;;;5095741;28;20002;-74
2022/09/26 03:00:51;;;;;;;;;;;11.80;99.90;;;;;;5125067;27;20045;-75
2022/09/26 03:03:16;;;;;;;;;;;11.80;99.90;;;;;;5094236;28;19920;-76
2022/09/26 03:05:43;;;;;;;;;;;11.80;99.90;;;;;;5093451;28;19923;-75
2022/09/26 03:08:16;;;;;;;;;;;11.80;99.90;;;;;;5095299;28;20007;-75
2022/09/26 03:10:43;;;;;;;;;;;11.80;99.90;;;;;;5093480;28;20011;-74
2022/09/26 03:13:13;;;;;;;;;;;11.80;99.90;;;;;;5084765;28;19912;-76
2022/09/26 03:15:39;;;;;;;;;;;11.90;99.90;;;;;;5094420;28;19931;-73
2022/09/26 03:18:07;;;;;;;;;;;11.80;99.90;;;;;;5095266;28;19920;-76
2022/09/26 03:20:33;;;;;;;;;;;11.80;99.90;;;;;;5094733;28;19912;-73
2022/09/26 03:22:58;;;;;;;;;;;11.80;99.90;;;;;;5094883;28;19919;-75
2022/09/26 03:25:26;;;;;;;;;;;11.80;99.90;;;;;;5095093;28;19926;-74
2022/09/26 03:27:52;;;;;;;;;;;11.80;99.90;;;;;;5092969;28;19948;-72
2022/09/26 03:30:18;;;;;;;;;;;11.80;99.90;;;;;;5095089;28;20294;-74
2022/09/26 03:32:43;;;;;;;;;;;11.80;99.90;;;;;;5088298;28;19912;-74
2022/09/26 03:35:09;;;;;;;;;;;11.90;99.90;;;;;;5092857;28;19912;-73
2022/09/26 03:37:36;;;;;;;;;;;11.80;99.90;;;;;;5093227;28;20262;-74
2022/09/26 03:40:02;;;;;;;;;;;11.80;99.90;;;;;;5094866;28;19965;-73
2022/09/26 03:42:30;;;;;;;;;;;11.80;99.90;;;;;;5092481;28;19965;-74
2022/09/26 03:44:56;;;;;;;;;;;11.80;99.90;;;;;;5094417;28;19912;-73
2022/09/26 03:47:22;;;;;;;;;;;11.80;99.90;;;;;;5095101;28;19973;-72
2022/09/26 03:49:47;;;;;;;;;;;11.80;99.90;;;;;;5093563;28;20010;-74
2022/09/26 03:52:13;;;;;;;;;;;11.80;99.90;;;;;;5130166;27;19927;-73
2022/09/26 03:54:39;;;;;;;;;;;11.80;99.90;;;;;;5127620;27;19918;-72
2022/09/26 03:57:05;;;;;;;;;;;11.80;99.90;;;;;;5128130;27;19915;-72
2022/09/26 03:59:30;;;;;;;;;;;11.80;99.90;;;;;;5125156;27;19995;-72
2022/09/26 04:01:56;;;;;;;;;;;11.80;99.90;;;;;;5132281;27;19912;-71
2022/09/26 04:04:21;;;;;;;;;;;11.80;99.90;;;;;;5136312;27;20293;-73
2022/09/26 04:06:49;;;;;;;;;;;11.80;99.90;;;;;;5116805;27;19937;-71
2022/09/26 04:09:16;;;;;;;;;;;11.80;99.90;;;;;;5126547;27;20217;-72
2022/09/26 04:11:42;;;;;;;;;;;11.80;99.90;;;;;;5135438;27;19918;-73
2022/09/26 04:14:08;;;;;;;;;;;11.80;99.90;;;;;;5133221;27;19999;-73
2022/09/26 04:16:35;;;;;;;;;;;11.80;99.90;;;;;;5135515;27;19953;-72
2022/09/26 04:19:01;;;;;;;;;;;11.80;99.90;;;;;;5128809;27;19911;-72
2022/09/26 04:21:27;;;;;;;;;;;11.70;99.90;;;;;;5135283;27;19980;-72
2022/09/26 04:23:53;;;;;;;;;;;11.80;99.90;;;;;;5121975;27;20318;-72
2022/09/26 04:26:19;;;;;;;;;;;11.70;99.90;;;;;;5129927;27;20239;-72
2022/09/26 04:28:45;;;;;;;;;;;11.70;99.90;;;;;;5134668;27;20615;-73
2022/09/26 04:31:11;;;;;;;;;;;11.60;99.90;;;;;;5134472;27;19918;-72
2022/09/26 04:33:38;;;;;;;;;;;11.50;99.90;;;;;;5131513;27;19959;-73
2022/09/26 04:36:05;;;;;;;;;;;11.50;99.90;;;;;;5109044;27;20311;-73
2022/09/26 04:38:33;;;;;;;;;;;11.40;99.90;;;;;;5132479;27;20394;-71
2022/09/26 04:41:09;;;;;;;;;;;11.40;99.90;;;;;;5123939;27;19951;-72
2022/09/26 04:43:35;;;;;;;;;;;11.40;99.90;;;;;;5124372;27;19922;-73
2022/09/26 04:46:04;;;;;;;;;;;11.30;99.90;;;;;;5133594;27;20290;-75
2022/09/26 04:48:30;;;;;;;;;;;11.30;99.90;;;;;;5125868;27;19915;-73
2022/09/26 04:50:55;;;;;;;;;;;11.20;99.90;;;;;;5139762;27;19919;-72
2022/09/26 04:53:22;;;;;;;;;;;11.20;99.90;;;;;;5114000;27;20018;-73
2022/09/26 04:55:48;;;;;;;;;;;11.20;99.90;;;;;;5129434;27;19924;-72
2022/09/26 04:58:14;;;;;;;;;;;11.20;99.90;;;;;;5132186;27;19918;-73
2022/09/26 05:00:44;;;;;;;;;;;11.20;99.90;;;;;;5124401;27;19918;-73
2022/09/26 05:03:11;;;;;;;;;;;11.20;99.90;;;;;;5137355;27;19960;-73
2022/09/26 05:05:37;;;;;;;;;;;11.10;99.90;;;;;;5125557;27;19919;-73
2022/09/26 05:08:04;;;;;;;;;;;11.20;99.90;;;;;;5143772;27;20013;-71
2022/09/26 05:10:29;;;;;;;;;;;11.10;99.90;;;;;;5106531;27;19908;-72
2022/09/26 05:12:57;;;;;;;;;;;11.10;99.90;;;;;;5139543;27;19915;-74
2022/09/26 05:15:22;;;;;;;;;;;11.20;99.90;;;;;;5131207;27;20270;-73
2022/09/26 05:17:54;;;;;;;;;;;11.20;99.90;;;;;;5138808;27;20018;-74
2022/09/26 05:20:20;;;;;;;;;;;11.10;99.90;;;;;;5127080;27;20214;-72
2022/09/26 05:22:45;;;;;;;;;;;11.20;99.90;;;;;;5112949;28;19964;-72
2022/09/26 05:27:55;;;;;;;;;;;11.10;99.90;;;;;;5130196;27;19969;-72
2022/09/26 05:30:20;;;;;;;;;;;11.10;99.90;;;;;;5131577;27;20252;-73
2022/09/26 05:32:47;;;;;;;;;;;11.10;99.90;;;;;;5129283;27;19911;-73
2022/09/26 05:35:12;;;;;;;;;;;11.00;99.90;;;;;;5103548;27;20328;-73
2022/09/26 05:37:38;;;;;;;;;;;11.00;99.90;;;;;;5131548;27;19919;-72
2022/09/26 05:42:48;;;;;;;;;;;11.00;99.90;;;;;;5131523;27;19919;-73
2022/09/26 05:45:14;;;;;;;;;;;10.90;99.90;;;;;;5132118;27;19908;-73
2022/09/26 05:47:40;;;;;;;;;;;10.90;99.90;;;;;;5131285;27;19921;-73
2022/09/26 05:50:08;;;;;;;;;;;10.90;99.90;;;;;;5109127;27;20006;-72
2022/09/26 05:52:37;;;;;;;;;;;10.90;99.90;;;;;;5106613;27;20266;-73
2022/09/26 05:55:04;;;;;;;;;;;10.90;99.90;;;;;;5127316;27;19938;-73
2022/09/26 05:57:29;;;;;;;;;;;10.90;99.90;;;;;;5127575;27;19912;-72
2022/09/26 05:59:55;;;;;;;;;;;10.90;99.90;;;;;;5132561;27;19975;-71
2022/09/26 06:02:20;;;;;;;;;;;11.00;99.90;;;;;;5117228;27;20236;-73
2022/09/26 06:04:46;;;;;;;;;;;11.00;99.90;;;;;;5132272;27;20299;-72
2022/09/26 06:07:11;;;;;;;;;;;11.00;99.90;;;;;;5117027;27;20265;-72
2022/09/26 06:09:37;;;;;;;;;;;11.00;99.90;;;;;;5120532;27;20192;-73
2022/09/26 06:12:03;;;;;;;;;;;11.00;99.90;;;;;;5117616;27;20192;-72
2022/09/26 06:14:28;;;;;;;;;;;11.10;99.90;;;;;;5127954;27;20446;-72
2022/09/26 06:16:54;;;;;;;;;;;11.10;99.90;;;;;;5106867;27;20195;-73
2022/09/26 06:19:19;;;;;;;;;;;11.10;99.90;;;;;;5132216;27;19916;-71
2022/09/26 06:21:45;;;;;;;;;;;11.10;99.90;;;;;;5100687;27;19926;-72
2022/09/26 06:24:12;;;;;;;;;;;11.20;99.90;;;;;;5121857;27;19912;-72
2022/09/26 06:26:37;;;;;;;;;;;11.20;99.90;;;;;;5120052;27;20010;-71
2022/09/26 06:29:03;;;;;;;;;;;11.30;99.90;;;;;;5128698;27;20271;-70
2022/09/26 06:31:29;;;;;;;;;;;11.30;99.90;;;;;;5136373;27;19912;-71
2022/09/26 06:33:54;;;;;;;;;;;11.30;99.90;;;;;;5131821;27;19976;-72
2022/09/26 06:36:21;;;;;;;;;;;11.30;99.90;;;;;;5133109;27;19919;-74
2022/09/26 06:38:46;;;;;;;;;;;11.40;99.90;;;;;;5106821;27;19911;-70
2022/09/26 06:41:15;;;;;;;;;;;11.40;99.90;;;;;;5119937;27;19960;-70
2022/09/26 06:43:43;;;;;;;;;;;11.40;99.90;;;;;;5102080;27;19908;-72
2022/09/26 06:46:09;;;;;;;;;;;11.40;99.90;;;;;;5131354;27;19953;-70
2022/09/26 06:48:35;;;;;;;;;;;11.50;99.90;;;;;;5131665;27;19959;-71
2022/09/26 06:51:00;;;;;;;;;;;11.50;99.90;;;;;;5126999;27;19923;-71
2022/09/26 06:53:26;;;;;;;;;;;11.50;99.90;;;;;;5123675;27;19912;-70
2022/09/26 06:55:52;;;;;;;;;;;11.60;99.90;;;;;;5134462;27;19992;-72
2022/09/26 06:58:17;;;;;;;;;;;11.60;99.90;;;;;;5134116;27;20014;-71
2022/09/26 07:00:43;;;;;;;;;;;11.60;99.90;;;;;;5101892;28;19966;-71
2022/09/26 07:03:09;;;;;;;;;;;11.60;99.90;;;;;;5111887;27;19929;-72
2022/09/26 07:05:34;;;;;;;;;;;11.60;99.90;;;;;;5119714;27;19952;-71
2022/09/26 07:08:00;;;;;;;;;;;11.60;99.90;;;;;;5115754;28;19920;-72
2022/09/26 07:10:29;;;;;;;;;;;11.60;99.90;;;;;;5105614;27;20210;-71
2022/09/26 07:13:04;;;;;;;;;;;11.60;99.90;;;;;;5116543;28;19907;-72
2022/09/26 07:15:32;;;;;;;;;;;11.60;99.90;;;;;;5125949;27;19912;-70
2022/09/26 07:18:01;;;;;;;;;;;11.60;99.90;;;;;;5118388;27;19911;-72
2022/09/26 07:20:27;;;;;;;;;;;11.60;99.90;;;;;;5125247;27;20018;-72
2022/09/26 07:22:53;;;;;;;;;;;11.60;99.90;;;;;;5116953;27;19965;-72
2022/09/26 07:25:19;;;;;;;;;;;11.60;99.90;;;;;;5116236;27;19915;-73
2022/09/26 07:27:47;;;;;;;;;;;11.60;99.90;;;;;;5122602;27;19916;-73
2022/09/26 07:30:13;;;;;;;;;;;11.60;99.90;;;;;;5125982;27;19916;-72
2022/09/26 07:32:42;;;;;;;;;;;11.60;99.90;;;;;;5118211;27;19919;-71
2022/09/26 07:35:07;;;;;;;;;;;11.60;99.90;;;;;;5117420;27;19922;-72
2022/09/26 07:37:33;;;;;;;;;;;11.70;99.90;;;;;;5116417;28;19908;-72
2022/09/26 07:39:59;;;;;;;;;;;11.70;99.90;;;;;;5103892;28;20010;-73
2022/09/26 07:42:24;;;;;;;;;;;11.70;99.90;;;;;;5115686;28;19973;-71
2022/09/26 07:44:50;;;;;;;;;;;11.70;99.90;;;;;;5143036;27;19916;-74
2022/09/26 07:50:13;;;;;;;;;;;11.70;99.90;;;;;;5125275;27;20325;-72
2022/09/26 07:52:42;;;;;;;;;;;11.70;99.90;;;;;;5119397;27;19951;-72
2022/09/26 07:55:09;;;;;;;;;;;11.80;99.90;;;;;;5126917;27;19911;-72
2022/09/26 07:57:34;;;;;;;;;;;11.80;99.90;;;;;;5127328;27;19914;-72
2022/09/26 08:00:06;;;;;;;;;;;11.80;99.90;;;;;;5117532;27;19923;-73
2022/09/26 08:02:35;;;;;;;;;;;11.80;99.90;;;;;;5123509;27;19916;-73
2022/09/26 08:05:02;;;;;;;;;;;11.90;99.90;;;;;;5135160;27;20290;-73
2022/09/26 08:07:28;;;;;;;;;;;12.00;99.90;;;;;;5110976;28;19920;-73
2022/09/26 08:09:54;;;;;;;;;;;12.00;99.90;;;;;;5115644;28;19912;-73
2022/09/26 08:12:20;;;;;;;;;;;12.00;99.90;;;;;;5115563;28;19919;-73
2022/09/26 08:14:47;;;;;;;;;;;12.10;99.90;;;;;;5116549;28;19962;-72
2022/09/26 08:17:13;;;;;;;;;;;12.10;99.90;;;;;;5114917;28;19953;-73
2022/09/26 08:19:38;;;;;;;;;;;12.10;99.90;;;;;;5115030;28;20008;-73
2022/09/26 08:22:07;;;;;;;;;;;12.10;99.90;;;;;;5115068;28;19908;-75
2022/09/26 08:24:32;;;;;;;;;;;12.00;99.90;;;;;;5114749;28;19915;-74
2022/09/26 08:26:59;;;;;;;;;;;11.90;99.90;;;;;;5121066;28;19940;-74
2022/09/26 08:29:25;;;;;;;;;;;11.90;99.90;;;;;;5117875;27;19915;-73
2022/09/26 08:31:52;;;;;;;;;;;11.90;99.90;;;;;;5100481;28;19916;-73
2022/09/26 08:34:19;;;;;;;;;;;11.90;99.90;;;;;;5123498;28;20379;-73
2022/09/26 08:36:50;;;;;;;;;;;11.90;99.90;;;;;;5114788;28;20007;-72
2022/09/26 08:39:16;;;;;;;;;;;11.90;99.90;;;;;;5113206;28;19912;-73
2022/09/26 08:41:48;;;;;;;;;;;11.90;99.90;;;;;;5126471;27;19919;-73
2022/09/26 08:44:32;;;;;;;;;;;11.80;99.90;;;;;;5130529;28;19915;-74
2022/09/26 08:47:00;;;;;;;;;;;11.90;99.90;;;;;;5127697;28;19919;-73
2022/09/26 08:49:38;;;;;;;;;;;12.00;99.90;;;;;;5118149;28;20277;-72
2022/09/26 08:52:22;;;;;;;;;;;12.00;99.90;;;;;;5099824;28;19935;-73
2022/09/26 08:54:48;;;;;;;;;;;12.00;99.90;;;;;;5110551;28;20323;-74
2022/09/26 08:57:33;;;;;;;;;;;12.10;99.90;;;;;;5103416;28;19957;-72
2022/09/26 09:00:02;;;;;;;;;;;12.10;99.90;;;;;;5129262;27;20362;-73
2022/09/26 09:02:28;;;;;;;;;;;12.00;99.90;;;;;;5127307;27;19951;-74
2022/09/26 09:05:04;;;;;;;;;;;12.10;99.90;;;;;;5099438;28;19907;-73
2022/09/26 09:07:30;;;;;;;;;;;12.10;99.90;;;;;;5124863;27;19984;-72
2022/09/26 09:10:00;;;;;;;;;;;12.00;99.90;;;;;;5131231;27;20333;-73
2022/09/26 09:12:25;;;;;;;;;;;12.10;99.90;;;;;;5096568;27;19920;-73
2022/09/26 09:15:29;;;;;;;;;;;12.10;99.90;;;;;;5127358;27;19907;-72
2022/09/26 09:17:57;;;;;;;;;;;12.20;99.90;;;;;;5050931;28;19917;-71
2022/09/26 09:20:41;;;;;;;;;;;12.20;99.90;;;;;;5055022;28;19912;-73
2022/09/26 09:23:16;;;;;;;;;;;12.30;99.90;;;;;;5090914;28;19912;-72
2022/09/26 09:25:57;;;;;;;;;;;12.30;99.90;;;;;;5130405;27;20347;-72
2022/09/26 09:28:41;;;;;;;;;;;12.40;99.90;;;;;;5110076;28;19916;-73
2022/09/26 09:31:13;;;;;;;;;;;12.40;99.90;;;;;;5118083;28;19916;-72
2022/09/26 09:33:41;;;;;;;;;;;12.30;99.90;;;;;;5117436;27;19915;-74
2022/09/26 09:36:07;;;;;;;;;;;12.30;99.90;;;;;;5117165;28;19990;-73
2022/09/26 09:38:35;;;;;;;;;;;12.30;99.90;;;;;;5117768;28;19925;-74
2022/09/26 09:41:19;;;;;;;;;;;12.30;99.90;;;;;;5099038;28;20011;-73
2022/09/26 09:43:53;;;;;;;;;;;12.30;99.90;;;;;;5101996;27;19908;-73
2022/09/26 09:46:27;;;;;;;;;;;12.30;99.90;;;;;;5120805;27;20068;-72
2022/09/26 09:48:55;;;;;;;;;;;12.20;99.90;;;;;;5134285;27;20302;-73
2022/09/26 09:51:36;;;;;;;;;;;12.20;99.90;;;;;;5125866;27;19919;-73
2022/09/26 09:54:01;;;;;;;;;;;12.30;99.90;;;;;;5122512;27;19911;-74
2022/09/26 09:56:30;;;;;;;;;;;12.20;99.90;;;;;;5133483;27;19964;-73
2022/09/26 09:59:10;;;;;;;;;;;12.30;99.90;;;;;;5108223;27;19916;-73
2022/09/26 10:01:40;;;;;;;;;;;12.30;99.90;;;;;;5131551;27;19953;-74
2022/09/26 10:04:11;;;;;;;;;;;12.30;99.90;;;;;;5106734;27;19919;-74
2022/09/26 10:06:36;;;;;;;;;;;12.20;99.90;;;;;;5110972;27;20210;-76
2022/09/26 10:09:31;;;;;;;;;;;12.20;99.90;;;;;;5128140;27;19920;-74
2022/09/26 10:11:57;;;;;;;;;;;12.30;99.90;;;;;;5103147;28;19931;-73
2022/09/26 10:14:32;;;;;;;;;;;12.30;99.90;;;;;;5125627;27;20454;-75
2022/09/26 10:17:10;;;;;;;;;;;12.30;99.90;;;;;;5105806;27;20215;-76
2022/09/26 10:19:37;;;;;;;;;;;12.30;99.90;;;;;;5122697;27;19919;-76
2022/09/26 10:22:08;;;;;;;;;;;12.30;99.90;;;;;;5127820;27;19982;-75
2022/09/26 10:24:40;;;;;;;;;;;12.40;99.90;;;;;;5125577;27;19994;-79
2022/09/26 10:27:30;;;;;;;;;;;12.40;99.90;;;;;;5117689;27;19915;-74
2022/09/26 10:29:57;;;;;;;;;;;12.40;99.90;;;;;;5123450;27;19965;-75
2022/09/26 10:32:23;;;;;;;;;;;12.40;99.90;;;;;;5122984;27;19996;-74
2022/09/26 10:35:16;;;;;;;;;;;12.40;99.90;;;;;;5119498;27;19912;-74
2022/09/26 10:37:41;;;;;;;;;;;12.40;99.90;;;;;;5094161;27;20002;-73
2022/09/26 10:43:19;;;;;;;;;;;12.30;99.90;;;;;;5133252;27;19964;-72
2022/09/26 10:45:53;;;;;;;;;;;12.40;99.90;;;;;;5116260;28;19912;-73
2022/09/26 10:48:20;;;;;;;;;;;12.40;99.90;;;;;;5135058;27;19911;-73
2022/09/26 10:50:49;;;;;;;;;;;12.40;99.90;;;;;;5127067;27;19923;-72
2022/09/26 10:53:16;;;;;;;;;;;12.40;99.90;;;;;;5105885;27;19919;-73
2022/09/26 10:56:04;;;;;;;;;;;12.40;99.90;;;;;;5121999;27;20218;-73
2022/09/26 10:58:29;;;;;;;;;;;12.40;99.90;;;;;;5127059;27;19997;-73
2022/09/26 11:00:58;;;;;;;;;;;12.50;99.90;;;;;;5116277;27;19994;-72
2022/09/26 11:03:44;;;;;;;;;;;12.50;99.90;;;;;;5098020;28;19908;-72
2022/09/26 11:06:21;;;;;;;;;;;12.50;99.90;;;;;;5124303;27;19912;-74
2022/09/26 11:08:49;;;;;;;;;;;12.50;99.90;;;;;;5118575;27;19916;-74
2022/09/26 11:11:16;;;;;;;;;;;12.50;99.90;;;;;;5115820;28;19911;-74
2022/09/26 11:13:48;;;;;;;;;;;12.50;99.90;;;;;;5104085;27;20002;-75
2022/09/26 11:16:18;;;;;;;;;;;12.50;99.90;;;;;;5120684;27;19915;-74
2022/09/26 11:18:55;;;;;;;;;;;12.50;99.90;;;;;;5126464;27;19999;-73
2022/09/26 11:21:24;;;;;;;;;;;12.50;99.90;;;;;;5104923;27;19912;-72
2022/09/26 11:23:57;;;;;;;;;;;12.50;99.90;;;;;;5129449;27;19954;-73
2022/09/26 11:26:30;;;;;;;;;;;12.50;99.90;;;;;;5130242;27;20298;-74
2022/09/26 11:29:02;;;;;;;;;;;12.50;99.90;;;;;;5130896;27;20248;-75
2022/09/26 11:31:33;;;;;;;;;;;12.50;99.90;;;;;;5115285;27;19950;-73
2022/09/26 11:34:02;;;;;;;;;;;12.60;99.90;;;;;;5104402;27;20202;-74
2022/09/26 11:36:46;;;;;;;;;;;12.50;99.90;;;;;;5115317;27;19935;-74
2022/09/26 11:39:21;;;;;;;;;;;12.50;99.90;;;;;;5130752;27;19908;-74
2022/09/26 11:41:47;;;;;;;;;;;12.60;99.90;;;;;;5134991;27;19942;-74
2022/09/26 11:44:32;;;;;;;;;;;12.60;99.90;;;;;;5110825;27;19973;-75
2022/09/26 11:47:16;;;;;;;;;;;12.60;99.90;;;;;;5129488;27;20330;-76
2022/09/26 11:49:47;;;;;;;;;;;12.60;99.90;;;;;;5126650;27;19918;-73
2022/09/26 11:52:13;;;;;;;;;;;12.60;99.90;;;;;;5116082;27;20020;-73
2022/09/26 11:54:49;;;;;;;;;;;12.60;99.90;;;;;;5127418;27;19949;-74
2022/09/26 11:57:36;;;;;;;;;;;12.70;99.90;;;;;;5125884;27;19918;-73
2022/09/26 12:00:23;;;;;;;;;;;12.70;99.90;;;;;;5127216;27;20002;-73
2022/09/26 12:03:12;;;;;;;;;;;12.80;99.90;;;;;;5114862;28;19961;-74
2022/09/26 12:05:43;;;;;;;;;;;13.00;99.90;;;;;;5111645;28;19916;-73
2022/09/26 12:08:08;;;;;;;;;;;13.30;99.90;;;;;;5115796;28;19911;-74
2022/09/26 12:10:39;;;;;;;;;;;13.30;99.90;;;;;;5123813;27;19990;-74
2022/09/26 12:13:11;;;;;;;;;;;13.40;99.90;;;;;;5114970;28;19912;-72
2022/09/26 12:15:43;;;;;;;;;;;13.50;99.90;;;;;;5128528;27;19998;-73
2022/09/26 12:18:14;;;;;;;;;;;13.60;99.90;;;;;;5124429;28;19911;-73
2022/09/26 12:20:40;;;;;;;;;;;13.70;99.90;;;;;;5116303;28;19912;-73
2022/09/26 12:23:28;;;;;;;;;;;13.80;99.90;;;;;;5103998;28;20321;-72
2022/09/26 12:26:00;;;;;;;;;;;13.70;99.90;;;;;;5106190;28;20305;-70
2022/09/26 12:28:44;;;;;;;;;;;13.70;99.90;;;;;;5120957;28;19919;-72
2022/09/26 12:31:10;;;;;;;;;;;13.70;99.90;;;;;;5116380;28;19915;-71
2022/09/26 12:33:45;;;;;;;;;;;13.60;99.90;;;;;;5125109;28;19964;-72
2022/09/26 12:36:30;;;;;;;;;;;13.60;99.90;;;;;;5114167;28;20053;-73
2022/09/26 12:39:08;;;;;;;;;;;13.60;99.90;;;;;;5096719;28;20337;-73
2022/09/26 12:41:33;;;;;;;;;;;13.60;99.90;;;;;;5096046;28;19994;-72
2022/09/26 12:44:12;;;;;;;;;;;13.70;99.90;;;;;;5114953;28;20015;-73
2022/09/26 12:46:52;;;;;;;;;;;13.60;99.90;;;;;;5113745;28;19912;-73
2022/09/26 12:49:50;;;;;;;;;;;13.60;99.90;;;;;;5121813;28;19912;-70
2022/09/26 12:52:31;;;;;;;;;;;13.60;99.90;;;;;;5032322;28;20011;-72
2022/09/26 12:55:17;;;;;;;;;;;13.60;99.90;;;;;;5028109;28;19917;-71
2022/09/26 12:57:59;;;;;;;;;;;13.50;99.90;;;;;;5015997;28;19975;-72
2022/09/26 13:00:29;;;;;;;;;;;13.50;99.90;;;;;;5031089;28;20028;-71
2022/09/26 13:02:55;;;;;;;;;;;13.40;99.90;;;;;;5032061;28;19916;-73
2022/09/26 13:05:31;;;;;;;;;;;13.30;99.90;;;;;;5030981;28;19919;-72
2022/09/26 13:08:15;;;;;;;;;;;13.40;99.90;;;;;;5035675;28;19956;-73
2022/09/26 13:10:44;;;;;;;;;;;13.50;99.90;;;;;;5031759;28;19913;-71
2022/09/26 13:13:23;;;;;;;;;;;13.50;99.90;;;;;;5035136;28;20697;-72
2022/09/26 13:15:55;;;;;;;;;;;13.60;99.90;;;;;;5039757;28;19916;-72
2022/09/26 13:18:25;;;;;;;;;;;13.60;99.90;;;;;;5020313;28;19913;-71
2022/09/26 13:20:57;;;;;;;;;;;13.60;99.90;;;;;;5008628;28;19910;-73
2022/09/26 13:23:29;;;;;;;;;;;13.60;99.90;;;;;;5000940;28;20020;-72
2022/09/26 13:26:07;;;;;;;;;;;13.60;99.90;;;;;;5032197;28;19921;-73
2022/09/26 13:28:41;;;;;;;;;;;13.60;99.90;;;;;;5095923;28;19920;-72
2022/09/26 13:31:15;;;;;;;;;;;13.60;99.90;;;;;;5110056;28;19912;-71
2022/09/26 13:33:49;;;;;;;;;;;13.60;99.90;;;;;;5101265;28;19990;-73
2022/09/26 13:36:16;;;;;;;;;;;13.50;99.90;;;;;;5107852;28;20291;-74
2022/09/26 13:38:52;;;;;;;;;;;13.50;99.90;;;;;;5101643;28;19921;-71
2022/09/26 13:41:34;;;;;;;;;;;13.50;99.90;;;;;;5097232;28;20350;-73
2022/09/26 13:44:24;;;;;;;;;;;13.50;99.90;;;;;;5096565;28;20222;-73
2022/09/26 13:47:02;;;;;;;;;;;13.50;99.90;;;;;;5113484;28;20307;-73
2022/09/26 13:49:35;;;;;;;;;;;13.60;99.90;;;;;;5116322;28;19912;-73
2022/09/26 13:52:10;;;;;;;;;;;13.80;99.90;;;;;;5121421;27;20740;-72
2022/09/26 13:54:53;;;;;;;;;;;14.10;99.90;;;;;;5137905;27;19911;-72
2022/09/26 13:57:30;;;;;;;;;;;14.60;99.90;;;;;;5133283;27;19960;-72
2022/09/26 13:59:56;;;;;;;;;;;15.00;99.90;;;;;;5114465;27;19984;-73
2022/09/26 14:02:30;;;;;;;;;;;15.10;99.90;;;;;;5120888;27;19922;-70
2022/09/26 14:05:02;;;;;;;;;;;15.10;99.90;;;;;;5114583;27;19937;-72
2022/09/26 14:10:37;;;;;;;;;;;15.00;99.90;;;;;;5111785;27;20290;-72
2022/09/26 14:13:09;;;;;;;;;;;14.70;99.90;;;;;;5101870;28;20753;-71
2022/09/26 14:15:58;;;;;;;;;;;14.60;99.90;;;;;;5112579;28;19912;-73
2022/09/26 14:18:32;;;;;;;;;;;14.60;99.90;;;;;;5084597;28;19922;-72
2022/09/26 14:21:14;;;;;;;;;;;14.60;99.90;;;;;;5115903;27;19916;-72
2022/09/26 14:23:47;;;;;;;;;;;14.60;99.90;;;;;;5117059;27;19916;-72
2022/09/26 14:26:26;;;;;;;;;;;14.60;99.90;;;;;;5116690;28;19918;-73
2022/09/26 14:28:53;;;;;;;;;;;14.60;99.90;;;;;;5127766;27;19950;-73
2022/09/26 14:31:31;;;;;;;;;;;14.60;99.90;;;;;;5117066;27;19955;-72
2022/09/26 14:34:13;;;;;;;;;;;14.60;99.90;;;;;;5116450;27;20310;-72
2022/09/26 14:36:39;;;;;;;;;;;14.60;99.90;;;;;;5116545;28;19916;-73
2022/09/26 14:39:05;;;;;;;;;;;14.50;99.90;;;;;;5120119;27;19916;-72
2022/09/26 14:41:32;;;;;;;;;;;14.50;99.90;;;;;;5101944;28;19919;-73
2022/09/26 14:44:03;;;;;;;;;;;14.40;99.90;;;;;;5116327;28;20431;-72
2022/09/26 14:46:31;;;;;;;;;;;14.40;99.90;;;;;;5098057;27;20318;-71
2022/09/26 14:49:01;;;;;;;;;;;14.30;99.90;;;;;;5133567;27;20482;-73
2022/09/26 14:51:30;;;;;;;;;;;14.30;99.90;;;;;;5124625;27;20272;-73